createdAt,value
2023-04-10T00:00:19.317Z,95379.00
2023-04-10T00:01:19.331Z,95379.00
2023-04-10T00:02:19.562Z,95379.00
2023-04-10T00:03:19.558Z,95379.00
2023-04-10T00:04:19.546Z,95379.00
2023-04-10T00:05:19.487Z,95375.00
2023-04-10T00:06:20.346Z,95373.00
2023-04-10T00:07:19.604Z,95373.00
2023-04-10T00:08:19.629Z,95375.00
2023-04-10T00:09:19.649Z,95375.00
2023-04-10T00:10:19.711Z,95373.00
2023-04-10T00:11:19.732Z,95377.00
2023-04-10T00:12:19.751Z,95377.00
2023-04-10T00:13:19.814Z,95377.00
2023-04-10T00:14:19.862Z,95375.00
2023-04-10T00:15:19.862Z,95375.00
2023-04-10T00:16:20.072Z,95373.00
2023-04-10T00:17:19.960Z,95373.00
2023-04-10T00:18:20.325Z,95373.00
2023-04-10T00:19:20.046Z,95373.00
2023-04-10T00:20:20.063Z,95373.00
2023-04-10T00:21:20.126Z,95369.00
2023-04-10T00:22:20.857Z,95369.00
2023-04-10T00:23:20.207Z,95371.00
2023-04-10T00:24:20.241Z,95371.00
2023-04-10T00:25:20.241Z,95369.00
2023-04-10T00:26:20.319Z,95369.00
2023-04-10T00:27:20.940Z,95371.00
2023-04-10T00:28:20.411Z,95373.00
2023-04-10T00:29:20.474Z,95369.00
2023-04-10T00:30:20.396Z,95371.00
2023-04-10T00:31:20.658Z,95373.00
2023-04-10T00:32:20.719Z,95371.00
2023-04-10T00:33:20.566Z,95369.00
2023-04-10T00:34:20.577Z,95367.00
2023-04-10T00:35:20.643Z,95367.00
2023-04-10T00:36:20.780Z,95365.00
2023-04-10T00:37:21.346Z,95365.00
2023-04-10T00:38:20.738Z,95365.00
2023-04-10T00:39:20.786Z,95363.00
2023-04-10T00:40:20.840Z,95361.00
2023-04-10T00:41:20.858Z,95363.00
2023-04-10T00:42:20.891Z,95359.00
2023-04-10T00:43:20.956Z,95357.00
2023-04-10T00:44:20.956Z,95357.00
2023-04-10T00:45:21.025Z,95357.00
2023-04-10T00:46:21.121Z,95357.00
2023-04-10T00:47:21.165Z,95357.00
2023-04-10T00:48:21.145Z,95359.00
2023-04-10T00:49:21.149Z,95361.00
2023-04-10T00:50:21.265Z,95359.00
2023-04-10T00:51:21.858Z,95363.00
2023-04-10T00:52:21.302Z,95363.00
2023-04-10T00:53:21.358Z,95365.00
2023-04-10T00:54:21.411Z,95365.00
2023-04-10T00:55:21.422Z,95367.00
2023-04-10T00:56:21.494Z,95365.00
2023-04-10T00:57:21.527Z,95365.00
2023-04-10T00:58:21.571Z,95365.00
2023-04-10T00:59:21.595Z,95365.00
2023-04-10T01:00:21.643Z,95363.00
2023-04-10T01:01:21.732Z,95359.00
2023-04-10T01:02:22.402Z,95359.00
2023-04-10T01:03:21.994Z,95363.00
2023-04-10T01:04:21.956Z,95361.00
2023-04-10T01:05:21.841Z,95361.00
2023-04-10T01:06:21.931Z,95361.00
2023-04-10T01:07:21.975Z,95363.00
2023-04-10T01:08:21.964Z,95363.00
2023-04-10T01:09:22.037Z,95363.00
2023-04-10T01:10:22.061Z,95363.00
2023-04-10T01:11:22.112Z,95365.00
2023-04-10T01:12:22.153Z,95359.00
2023-04-10T01:13:22.226Z,95361.00
2023-04-10T01:14:22.229Z,95359.00
2023-04-10T01:15:22.260Z,95361.00
2023-04-10T01:16:22.371Z,95363.00
2023-04-10T01:17:22.354Z,95363.00
2023-04-10T01:18:22.403Z,95363.00
2023-04-10T01:19:22.433Z,95367.00
2023-04-10T01:20:22.557Z,95369.00
2023-04-10T01:21:22.517Z,95369.00
2023-04-10T01:22:22.538Z,95371.00
2023-04-10T01:23:22.586Z,95369.00
2023-04-10T01:24:22.689Z,95367.00
2023-04-10T01:25:22.721Z,95367.00
2023-04-10T01:26:22.760Z,95367.00
2023-04-10T01:27:22.846Z,95373.00
2023-04-10T01:28:22.831Z,95373.00
2023-04-10T01:29:22.866Z,95369.00
2023-04-10T01:30:22.901Z,95371.00
2023-04-10T01:31:22.964Z,95373.00
2023-04-10T01:32:23.033Z,95375.00
2023-04-10T01:33:23.063Z,95371.00
2023-04-10T01:34:23.122Z,95373.00
2023-04-10T01:35:23.180Z,95371.00
2023-04-10T01:36:23.157Z,95371.00
2023-04-10T01:37:23.237Z,95367.00
2023-04-10T01:38:23.251Z,95369.00
2023-04-10T01:39:23.327Z,95371.00
2023-04-10T01:40:23.328Z,95371.00
2023-04-10T01:41:23.364Z,95369.00
2023-04-10T01:42:23.414Z,95371.00
2023-04-10T01:43:23.500Z,95375.00
2023-04-10T01:44:23.497Z,95373.00
2023-04-10T01:45:23.549Z,95377.00
2023-04-10T01:46:23.696Z,95377.00
2023-04-10T01:47:23.664Z,95377.00
2023-04-10T01:48:23.694Z,95379.00
2023-04-10T01:49:23.719Z,95377.00
2023-04-10T01:50:23.771Z,95375.00
2023-04-10T01:51:23.822Z,95375.00
2023-04-10T01:52:23.827Z,95373.00
2023-04-10T01:53:23.880Z,95371.00
2023-04-10T01:54:23.948Z,95367.00
2023-04-10T01:55:23.959Z,95363.00
2023-04-10T01:56:24.103Z,95361.00
2023-04-10T01:57:24.057Z,95361.00
2023-04-10T01:58:24.140Z,95363.00
2023-04-10T01:59:24.112Z,95361.00
2023-04-10T02:00:24.219Z,95361.00
2023-04-10T02:01:29.834Z,95361.00
2023-04-10T02:02:25.371Z,95359.00
2023-04-10T02:03:24.392Z,95361.00
2023-04-10T02:04:24.342Z,95361.00
2023-04-10T02:05:24.203Z,95361.00
2023-04-10T02:06:24.897Z,95359.00
2023-04-10T02:07:24.187Z,95357.00
2023-04-10T02:08:24.176Z,95359.00
2023-04-10T02:09:24.255Z,95357.00
2023-04-10T02:10:24.160Z,95351.00
2023-04-10T02:11:24.173Z,95349.00
2023-04-10T02:12:24.152Z,95349.00
2023-04-10T02:13:24.192Z,95349.00
2023-04-10T02:14:24.243Z,95349.00
2023-04-10T02:15:24.296Z,95349.00
2023-04-10T02:16:24.361Z,95349.00
2023-04-10T02:17:24.349Z,95351.00
2023-04-10T02:18:24.395Z,95349.00
2023-04-10T02:19:24.421Z,95351.00
2023-04-10T02:20:24.491Z,95349.00
2023-04-10T02:21:24.518Z,95347.00
2023-04-10T02:22:24.570Z,95347.00
2023-04-10T02:23:24.596Z,95347.00
2023-04-10T02:24:24.633Z,95347.00
2023-04-10T02:25:24.710Z,95343.00
2023-04-10T02:26:24.778Z,95345.00
2023-04-10T02:27:24.798Z,95343.00
2023-04-10T02:28:24.808Z,95343.00
2023-04-10T02:29:24.927Z,95345.00
2023-04-10T02:30:24.936Z,95347.00
2023-04-10T02:31:24.976Z,95349.00
2023-04-10T02:32:24.987Z,95353.00
2023-04-10T02:33:25.069Z,95349.00
2023-04-10T02:34:25.059Z,95351.00
2023-04-10T02:35:25.126Z,95351.00
2023-04-10T02:36:25.171Z,95349.00
2023-04-10T02:37:25.223Z,95349.00
2023-04-10T02:38:25.300Z,95351.00
2023-04-10T02:39:25.324Z,95349.00
2023-04-10T02:40:25.320Z,95349.00
2023-04-10T02:41:25.382Z,95349.00
2023-04-10T02:42:26.411Z,95353.00
2023-04-10T02:43:25.453Z,95353.00
2023-04-10T02:44:25.510Z,95355.00
2023-04-10T02:45:25.544Z,95357.00
2023-04-10T02:46:25.646Z,95357.00
2023-04-10T02:47:25.669Z,95357.00
2023-04-10T02:48:25.671Z,95357.00
2023-04-10T02:49:25.722Z,95357.00
2023-04-10T02:50:25.830Z,95357.00
2023-04-10T02:51:25.810Z,95357.00
2023-04-10T02:52:25.850Z,95357.00
2023-04-10T02:53:25.912Z,95355.00
2023-04-10T02:54:25.918Z,95357.00
2023-04-10T02:55:26.000Z,95357.00
2023-04-10T02:56:26.360Z,95357.00
2023-04-10T02:57:26.052Z,95359.00
2023-04-10T02:58:26.098Z,95357.00
2023-04-10T02:59:26.161Z,95357.00
2023-04-10T03:00:26.187Z,95353.00
2023-04-10T03:01:26.384Z,95351.00
2023-04-10T03:02:26.498Z,95353.00
2023-04-10T03:03:26.493Z,95349.00
2023-04-10T03:04:26.543Z,95345.00
2023-04-10T03:05:26.404Z,95347.00
2023-04-10T03:06:26.464Z,95349.00
2023-04-10T03:07:26.503Z,95347.00
2023-04-10T03:08:26.546Z,95347.00
2023-04-10T03:09:26.575Z,95345.00
2023-04-10T03:10:26.636Z,95343.00
2023-04-10T03:11:26.779Z,95341.00
2023-04-10T03:12:27.461Z,95341.00
2023-04-10T03:13:26.836Z,95343.00
2023-04-10T03:14:26.808Z,95341.00
2023-04-10T03:15:26.877Z,95341.00
2023-04-10T03:16:27.887Z,95343.00
2023-04-10T03:17:26.925Z,95343.00
2023-04-10T03:18:26.931Z,95343.00
2023-04-10T03:19:26.951Z,95345.00
2023-04-10T03:20:27.059Z,95343.00
2023-04-10T03:21:27.003Z,95347.00
2023-04-10T03:22:27.010Z,95345.00
2023-04-10T03:23:26.983Z,95347.00
2023-04-10T03:24:27.000Z,95345.00
2023-04-10T03:25:27.000Z,95341.00
2023-04-10T03:26:27.043Z,95347.00
2023-04-10T03:27:27.105Z,95343.00
2023-04-10T03:28:27.106Z,95345.00
2023-04-10T03:29:27.165Z,95345.00
2023-04-10T03:30:27.233Z,95345.00
2023-04-10T03:31:27.313Z,95347.00
2023-04-10T03:32:27.340Z,95351.00
2023-04-10T03:33:27.382Z,95351.00
2023-04-10T03:34:27.371Z,95351.00
2023-04-10T03:35:27.423Z,95353.00
2023-04-10T03:36:27.575Z,95353.00
2023-04-10T03:37:27.505Z,95353.00
2023-04-10T03:38:27.569Z,95353.00
2023-04-10T03:39:27.590Z,95353.00
2023-04-10T03:40:28.442Z,95355.00
2023-04-10T03:41:27.621Z,95355.00
2023-04-10T03:42:27.647Z,95355.00
2023-04-10T03:43:27.653Z,95353.00
2023-04-10T03:44:27.773Z,95353.00
2023-04-10T03:45:27.713Z,95355.00
2023-04-10T03:46:27.797Z,95353.00
2023-04-10T03:47:27.777Z,95355.00
2023-04-10T03:48:27.916Z,95353.00
2023-04-10T03:49:27.770Z,95357.00
2023-04-10T03:50:27.794Z,95355.00
2023-04-10T03:51:27.814Z,95357.00
2023-04-10T03:52:27.810Z,95355.00
2023-04-10T03:53:27.788Z,95355.00
2023-04-10T03:54:27.842Z,95353.00
2023-04-10T03:55:27.924Z,95357.00
2023-04-10T03:56:27.897Z,95357.00
2023-04-10T03:57:27.856Z,95353.00
2023-04-10T03:58:27.835Z,95355.00
2023-04-10T03:59:37.883Z,95357.00
2023-04-10T04:00:28.843Z,95357.00
2023-04-10T04:01:27.853Z,95363.00
2023-04-10T04:02:28.021Z,95361.00
2023-04-10T04:03:28.694Z,95361.00
2023-04-10T04:04:27.866Z,95361.00
2023-04-10T04:05:27.891Z,95365.00
2023-04-10T04:06:27.831Z,95363.00
2023-04-10T04:07:27.846Z,95365.00
2023-04-10T04:08:27.792Z,95363.00
2023-04-10T04:09:27.790Z,95365.00
2023-04-10T04:10:27.799Z,95365.00
2023-04-10T04:11:27.796Z,95363.00
2023-04-10T04:12:27.782Z,95361.00
2023-04-10T04:13:27.750Z,95363.00
2023-04-10T04:14:27.811Z,95361.00
2023-04-10T04:15:27.772Z,95361.00
2023-04-10T04:16:27.799Z,95363.00
2023-04-10T04:17:27.767Z,95361.00
2023-04-10T04:18:27.762Z,95363.00
2023-04-10T04:19:27.724Z,95363.00
2023-04-10T04:20:27.703Z,95365.00
2023-04-10T04:21:27.907Z,95365.00
2023-04-10T04:22:27.670Z,95365.00
2023-04-10T04:23:27.677Z,95367.00
2023-04-10T04:24:27.713Z,95369.00
2023-04-10T04:25:27.789Z,95367.00
2023-04-10T04:26:27.885Z,95369.00
2023-04-10T04:27:27.873Z,95369.00
2023-04-10T04:28:30.197Z,95369.00
2023-04-10T04:29:28.042Z,95369.00
2023-04-10T04:30:28.106Z,95373.00
2023-04-10T04:31:28.214Z,95373.00
2023-04-10T04:32:28.267Z,95371.00
2023-04-10T04:33:28.944Z,95369.00
2023-04-10T04:34:28.381Z,95369.00
2023-04-10T04:35:28.960Z,95371.00
2023-04-10T04:36:28.541Z,95371.00
2023-04-10T04:37:28.529Z,95371.00
2023-04-10T04:38:28.604Z,95369.00
2023-04-10T04:39:28.651Z,95367.00
2023-04-10T04:40:28.737Z,95369.00
2023-04-10T04:41:29.422Z,95373.00
2023-04-10T04:42:29.418Z,95367.00
2023-04-10T04:43:28.892Z,95371.00
2023-04-10T04:44:29.917Z,95373.00
2023-04-10T04:45:29.022Z,95377.00
2023-04-10T04:46:29.099Z,95377.00
2023-04-10T04:47:29.140Z,95377.00
2023-04-10T04:48:29.953Z,95380.00
2023-04-10T04:49:29.191Z,95380.00
2023-04-10T04:50:29.447Z,95384.00
2023-04-10T04:51:29.278Z,95384.00
2023-04-10T04:52:29.381Z,95382.00
2023-04-10T04:53:29.339Z,95384.00
2023-04-10T04:54:29.408Z,95382.00
2023-04-10T04:55:29.462Z,95384.00
2023-04-10T04:56:29.483Z,95380.00
2023-04-10T04:57:29.556Z,95380.00
2023-04-10T04:58:29.557Z,95380.00
2023-04-10T04:59:29.566Z,95380.00
2023-04-10T05:00:29.597Z,95380.00
2023-04-10T05:01:29.748Z,95382.00
2023-04-10T05:02:29.826Z,95382.00
2023-04-10T05:03:29.782Z,95382.00
2023-04-10T05:04:29.798Z,95380.00
2023-04-10T05:05:29.804Z,95382.00
2023-04-10T05:06:29.806Z,95382.00
2023-04-10T05:07:29.868Z,95382.00
2023-04-10T05:08:29.888Z,95382.00
2023-04-10T05:09:29.929Z,95380.00
2023-04-10T05:10:29.945Z,95380.00
2023-04-10T05:11:30.016Z,95380.00
2023-04-10T05:12:30.023Z,95384.00
2023-04-10T05:13:30.153Z,95386.00
2023-04-10T05:14:30.120Z,95386.00
2023-04-10T05:15:30.136Z,95388.00
2023-04-10T05:16:30.195Z,95388.00
2023-04-10T05:17:30.214Z,95394.00
2023-04-10T05:18:30.292Z,95394.00
2023-04-10T05:19:30.297Z,95392.00
2023-04-10T05:20:30.374Z,95392.00
2023-04-10T05:21:30.379Z,95394.00
2023-04-10T05:22:30.407Z,95392.00
2023-04-10T05:23:30.476Z,95392.00
2023-04-10T05:24:30.506Z,95392.00
2023-04-10T05:25:30.557Z,95392.00
2023-04-10T05:26:30.592Z,95390.00
2023-04-10T05:27:30.613Z,95390.00
2023-04-10T05:28:30.728Z,95394.00
2023-04-10T05:29:30.711Z,95392.00
2023-04-10T05:30:30.764Z,95392.00
2023-04-10T05:31:30.895Z,95394.00
2023-04-10T05:32:30.940Z,95392.00
2023-04-10T05:33:30.981Z,95394.00
2023-04-10T05:34:30.978Z,95394.00
2023-04-10T05:35:31.024Z,95402.00
2023-04-10T05:36:31.079Z,95404.00
2023-04-10T05:37:31.126Z,95404.00
2023-04-10T05:38:31.154Z,95404.00
2023-04-10T05:39:31.245Z,95404.00
2023-04-10T05:40:31.255Z,95404.00
2023-04-10T05:41:31.341Z,95404.00
2023-04-10T05:42:31.363Z,95404.00
2023-04-10T05:43:31.473Z,95402.00
2023-04-10T05:44:31.537Z,95402.00
2023-04-10T05:45:31.597Z,95406.00
2023-04-10T05:46:31.657Z,95406.00
2023-04-10T05:47:31.699Z,95404.00
2023-04-10T05:48:31.768Z,95404.00
2023-04-10T05:49:31.797Z,95404.00
2023-04-10T05:50:31.919Z,95402.00
2023-04-10T05:51:32.022Z,95402.00
2023-04-10T05:52:31.998Z,95394.00
2023-04-10T05:53:32.079Z,95394.00
2023-04-10T05:54:32.077Z,95402.00
2023-04-10T05:55:32.188Z,95402.00
2023-04-10T05:56:32.269Z,95402.00
2023-04-10T05:57:32.242Z,95404.00
2023-04-10T05:58:32.373Z,95402.00
2023-04-10T05:59:32.380Z,95404.00
2023-04-10T06:00:32.450Z,95402.00
2023-04-10T06:01:32.525Z,95404.00
2023-04-10T06:02:32.640Z,95404.00
2023-04-10T06:03:32.798Z,95402.00
2023-04-10T06:04:32.769Z,95406.00
2023-04-10T06:05:32.708Z,95402.00
2023-04-10T06:06:32.776Z,95404.00
2023-04-10T06:07:32.826Z,95404.00
2023-04-10T06:08:32.889Z,95406.00
2023-04-10T06:09:32.930Z,95406.00
2023-04-10T06:10:32.994Z,95410.00
2023-04-10T06:11:33.010Z,95412.00
2023-04-10T06:12:33.092Z,95412.00
2023-04-10T06:13:33.153Z,95414.00
2023-04-10T06:14:33.177Z,95412.00
2023-04-10T06:15:33.244Z,95412.00
2023-04-10T06:16:33.418Z,95414.00
2023-04-10T06:17:33.421Z,95414.00
2023-04-10T06:18:33.385Z,95412.00
2023-04-10T06:19:33.428Z,95414.00
2023-04-10T06:20:33.689Z,95414.00
2023-04-10T06:21:33.540Z,95418.00
2023-04-10T06:22:33.599Z,95416.00
2023-04-10T06:23:33.641Z,95420.00
2023-04-10T06:24:33.772Z,95418.00
2023-04-10T06:25:33.717Z,95418.00
2023-04-10T06:26:33.808Z,95416.00
2023-04-10T06:27:33.849Z,95416.00
2023-04-10T06:28:33.886Z,95414.00
2023-04-10T06:29:34.062Z,95412.00
2023-04-10T06:30:33.928Z,95414.00
2023-04-10T06:31:34.065Z,95412.00
2023-04-10T06:32:34.100Z,95414.00
2023-04-10T06:33:34.101Z,95414.00
2023-04-10T06:34:34.193Z,95412.00
2023-04-10T06:35:34.184Z,95410.00
2023-04-10T06:36:34.237Z,95410.00
2023-04-10T06:37:34.246Z,95410.00
2023-04-10T06:38:34.345Z,95408.00
2023-04-10T06:39:34.348Z,95408.00
2023-04-10T06:40:34.440Z,95408.00
2023-04-10T06:41:34.474Z,95402.00
2023-04-10T06:42:34.500Z,95402.00
2023-04-10T06:43:34.551Z,95394.00
2023-04-10T06:44:34.629Z,95402.00
2023-04-10T06:45:34.627Z,95392.00
2023-04-10T06:46:34.809Z,95388.00
2023-04-10T06:47:34.797Z,95392.00
2023-04-10T06:48:34.811Z,95388.00
2023-04-10T06:49:34.854Z,95386.00
2023-04-10T06:50:34.853Z,95388.00
2023-04-10T06:51:34.896Z,95384.00
2023-04-10T06:52:34.949Z,95382.00
2023-04-10T06:53:35.041Z,95384.00
2023-04-10T06:54:35.055Z,95382.00
2023-04-10T06:55:35.107Z,95380.00
2023-04-10T06:56:35.152Z,95380.00
2023-04-10T06:57:35.215Z,95380.00
2023-04-10T06:58:35.247Z,95382.00
2023-04-10T06:59:35.251Z,95379.00
2023-04-10T07:00:35.332Z,95375.00
2023-04-10T07:01:35.362Z,95375.00
2023-04-10T07:02:35.424Z,95373.00
2023-04-10T07:03:35.458Z,95373.00
2023-04-10T07:04:35.502Z,95371.00
2023-04-10T07:05:35.508Z,95371.00
2023-04-10T07:06:35.537Z,95369.00
2023-04-10T07:07:36.484Z,95367.00
2023-04-10T07:08:35.627Z,95363.00
2023-04-10T07:09:35.642Z,95363.00
2023-04-10T07:10:35.718Z,95361.00
2023-04-10T07:11:35.788Z,95359.00
2023-04-10T07:12:35.743Z,95359.00
2023-04-10T07:13:35.781Z,95361.00
2023-04-10T07:14:35.869Z,95359.00
2023-04-10T07:15:35.863Z,95359.00
2023-04-10T07:16:35.975Z,95359.00
2023-04-10T07:17:36.048Z,95359.00
2023-04-10T07:18:35.966Z,95359.00
2023-04-10T07:19:36.035Z,95357.00
2023-04-10T07:20:36.052Z,95355.00
2023-04-10T07:21:36.067Z,95357.00
2023-04-10T07:22:36.507Z,95355.00
2023-04-10T07:23:36.153Z,95353.00
2023-04-10T07:24:36.168Z,95353.00
2023-04-10T07:25:36.209Z,95353.00
2023-04-10T07:26:36.275Z,95353.00
2023-04-10T07:27:36.288Z,95353.00
2023-04-10T07:28:36.345Z,95353.00
2023-04-10T07:29:36.375Z,95349.00
2023-04-10T07:30:36.385Z,95349.00
2023-04-10T07:31:36.616Z,95347.00
2023-04-10T07:32:36.585Z,95347.00
2023-04-10T07:33:36.555Z,95345.00
2023-04-10T07:34:36.519Z,95343.00
2023-04-10T07:35:36.647Z,95345.00
2023-04-10T07:36:36.598Z,95349.00
2023-04-10T07:37:36.668Z,95345.00
2023-04-10T07:38:36.694Z,95347.00
2023-04-10T07:39:36.750Z,95345.00
2023-04-10T07:40:36.748Z,95345.00
2023-04-10T07:41:37.476Z,95343.00
2023-04-10T07:42:36.813Z,95343.00
2023-04-10T07:43:36.828Z,95343.00
2023-04-10T07:44:36.848Z,95343.00
2023-04-10T07:45:37.002Z,95339.00
2023-04-10T07:46:37.096Z,95339.00
2023-04-10T07:47:37.100Z,95337.00
2023-04-10T07:48:37.010Z,95335.00
2023-04-10T07:49:36.992Z,95335.00
2023-04-10T07:50:37.026Z,95333.00
2023-04-10T07:51:37.037Z,95330.00
2023-04-10T07:52:37.055Z,95332.00
2023-04-10T07:53:37.068Z,95330.00
2023-04-10T07:54:37.096Z,95326.00
2023-04-10T07:55:37.122Z,95326.00
2023-04-10T07:56:37.119Z,95322.00
2023-04-10T07:57:37.142Z,95324.00
2023-04-10T07:58:37.173Z,95322.00
2023-04-10T07:59:37.202Z,95322.00
2023-04-10T08:00:40.019Z,95322.00
2023-04-10T08:01:37.225Z,95318.00
2023-04-10T08:02:37.309Z,95318.00
2023-04-10T08:03:37.281Z,95318.00
2023-04-10T08:04:37.362Z,95320.00
2023-04-10T08:05:37.139Z,95318.00
2023-04-10T08:06:37.224Z,95318.00
2023-04-10T08:07:37.140Z,95316.00
2023-04-10T08:08:37.142Z,95316.00
2023-04-10T08:09:37.102Z,95316.00
2023-04-10T08:10:37.129Z,95314.00
2023-04-10T08:11:38.365Z,95312.00
2023-04-10T08:12:37.068Z,95314.00
2023-04-10T08:13:38.013Z,95314.00
2023-04-10T08:14:38.022Z,95312.00
2023-04-10T08:15:37.067Z,95312.00
2023-04-10T08:16:37.611Z,95312.00
2023-04-10T08:17:37.107Z,95312.00
2023-04-10T08:18:37.025Z,95310.00
2023-04-10T08:19:37.039Z,95310.00
2023-04-10T08:20:37.089Z,95310.00
2023-04-10T08:21:37.074Z,95306.00
2023-04-10T08:22:37.046Z,95306.00
2023-04-10T08:23:37.013Z,95304.00
2023-04-10T08:24:36.983Z,95302.00
2023-04-10T08:25:37.001Z,95300.00
2023-04-10T08:26:37.020Z,95300.00
2023-04-10T08:27:37.492Z,95296.00
2023-04-10T08:28:39.509Z,95296.00
2023-04-10T08:29:37.129Z,95294.00
2023-04-10T08:30:37.174Z,95294.00
2023-04-10T08:31:37.166Z,95290.00
2023-04-10T08:32:37.253Z,95288.00
2023-04-10T08:33:37.151Z,95288.00
2023-04-10T08:34:37.179Z,95288.00
2023-04-10T08:35:37.208Z,95286.00
2023-04-10T08:36:37.240Z,95288.00
2023-04-10T08:37:37.263Z,95286.00
2023-04-10T08:38:37.192Z,95286.00
2023-04-10T08:39:37.208Z,95288.00
2023-04-10T08:40:37.232Z,95288.00
2023-04-10T08:41:37.208Z,95286.00
2023-04-10T08:42:37.311Z,95283.00
2023-04-10T08:43:37.253Z,95281.00
2023-04-10T08:44:37.249Z,95279.00
2023-04-10T08:45:37.287Z,95275.00
2023-04-10T08:46:37.280Z,95277.00
2023-04-10T08:47:37.591Z,95273.00
2023-04-10T08:48:37.184Z,95273.00
2023-04-10T08:49:37.185Z,95273.00
2023-04-10T08:50:37.268Z,95269.00
2023-04-10T08:51:37.190Z,95267.00
2023-04-10T08:52:37.286Z,95269.00
2023-04-10T08:53:37.201Z,95265.00
2023-04-10T08:54:37.244Z,95265.00
2023-04-10T08:55:37.202Z,95263.00
2023-04-10T08:56:37.231Z,95261.00
2023-04-10T08:57:38.846Z,95261.00
2023-04-10T08:58:37.521Z,95257.00
2023-04-10T08:59:37.231Z,95257.00
2023-04-10T09:00:38.014Z,95255.00
2023-04-10T09:01:37.329Z,95257.00
2023-04-10T09:02:38.647Z,95253.00
2023-04-10T09:03:38.146Z,95251.00
2023-04-10T09:04:37.363Z,95249.00
2023-04-10T09:05:37.249Z,95249.00
2023-04-10T09:06:37.275Z,95249.00
2023-04-10T09:07:37.202Z,95243.00
2023-04-10T09:08:37.181Z,95245.00
2023-04-10T09:09:37.214Z,95245.00
2023-04-10T09:10:37.182Z,95243.00
2023-04-10T09:11:38.012Z,95243.00
2023-04-10T09:12:37.166Z,95239.00
2023-04-10T09:13:37.189Z,95237.00
2023-04-10T09:14:37.164Z,95234.00
2023-04-10T09:15:37.202Z,95234.00
2023-04-10T09:16:37.124Z,95234.00
2023-04-10T09:17:37.184Z,95232.00
2023-04-10T09:18:37.118Z,95232.00
2023-04-10T09:19:37.157Z,95234.00
2023-04-10T09:20:37.110Z,95232.00
2023-04-10T09:21:37.128Z,95228.00
2023-04-10T09:22:37.096Z,95228.00
2023-04-10T09:23:38.043Z,95224.00
2023-04-10T09:24:37.090Z,95228.00
2023-04-10T09:25:37.104Z,95222.00
2023-04-10T09:26:37.070Z,95220.00
2023-04-10T09:27:37.090Z,95222.00
2023-04-10T09:28:37.087Z,95214.00
2023-04-10T09:29:37.067Z,95214.00
2023-04-10T09:30:37.044Z,95212.00
2023-04-10T09:31:37.067Z,95210.00
2023-04-10T09:32:37.143Z,95210.00
2023-04-10T09:33:37.048Z,95208.00
2023-04-10T09:34:37.000Z,95206.00
2023-04-10T09:35:37.019Z,95206.00
2023-04-10T09:36:37.052Z,95202.00
2023-04-10T09:37:37.028Z,95198.00
2023-04-10T09:38:36.978Z,95196.00
2023-04-10T09:39:37.006Z,95196.00
2023-04-10T09:40:37.000Z,95192.00
2023-04-10T09:41:37.081Z,95190.00
2023-04-10T09:42:37.157Z,95186.00
2023-04-10T09:43:38.029Z,95186.00
2023-04-10T09:44:37.320Z,95184.00
2023-04-10T09:45:37.315Z,95186.00
2023-04-10T09:46:37.566Z,95186.00
2023-04-10T09:47:37.489Z,95184.00
2023-04-10T09:48:37.523Z,95183.00
2023-04-10T09:49:37.531Z,95183.00
2023-04-10T09:50:39.555Z,95179.00
2023-04-10T09:51:37.687Z,95179.00
2023-04-10T09:52:37.591Z,95177.00
2023-04-10T09:53:37.615Z,95177.00
2023-04-10T09:54:37.583Z,95175.00
2023-04-10T09:55:37.559Z,95171.00
2023-04-10T09:56:37.565Z,95169.00
2023-04-10T09:57:37.602Z,95165.00
2023-04-10T09:58:37.564Z,95165.00
2023-04-10T09:59:37.540Z,95163.00
2023-04-10T10:00:37.538Z,95161.00
2023-04-10T10:01:37.589Z,95161.00
2023-04-10T10:02:37.688Z,95157.00
2023-04-10T10:03:37.585Z,95159.00
2023-04-10T10:04:37.572Z,95155.00
2023-04-10T10:05:37.479Z,95153.00
2023-04-10T10:06:37.497Z,95157.00
2023-04-10T10:07:37.523Z,95153.00
2023-04-10T10:08:37.476Z,95151.00
2023-04-10T10:09:37.515Z,95149.00
2023-04-10T10:10:37.481Z,95147.00
2023-04-10T10:11:37.435Z,95145.00
2023-04-10T10:12:37.453Z,95145.00
2023-04-10T10:13:37.411Z,95145.00
2023-04-10T10:14:38.326Z,95133.00
2023-04-10T10:15:37.432Z,95135.00
2023-04-10T10:16:37.462Z,95133.00
2023-04-10T10:17:37.430Z,95130.00
2023-04-10T10:18:37.417Z,95130.00
2023-04-10T10:19:37.554Z,95128.00
2023-04-10T10:20:37.403Z,95124.00
2023-04-10T10:21:37.373Z,95120.00
2023-04-10T10:22:37.395Z,95122.00
2023-04-10T10:23:37.409Z,95118.00
2023-04-10T10:24:38.092Z,95114.00
2023-04-10T10:25:37.342Z,95114.00
2023-04-10T10:26:37.374Z,95114.00
2023-04-10T10:27:37.310Z,95110.00
2023-04-10T10:28:37.423Z,95110.00
2023-04-10T10:29:37.406Z,95106.00
2023-04-10T10:30:37.451Z,95108.00
2023-04-10T10:31:37.608Z,95106.00
2023-04-10T10:32:37.615Z,95102.00
2023-04-10T10:33:37.704Z,95100.00
2023-04-10T10:34:37.712Z,95100.00
2023-04-10T10:35:37.749Z,95100.00
2023-04-10T10:36:37.949Z,95096.00
2023-04-10T10:37:37.860Z,95094.00
2023-04-10T10:38:37.947Z,95096.00
2023-04-10T10:39:38.054Z,95090.00
2023-04-10T10:40:38.041Z,95088.00
2023-04-10T10:41:38.090Z,95084.00
2023-04-10T10:42:38.125Z,95083.00
2023-04-10T10:43:38.285Z,95084.00
2023-04-10T10:44:38.244Z,95083.00
2023-04-10T10:45:38.388Z,95079.00
2023-04-10T10:46:38.362Z,95077.00
2023-04-10T10:47:38.424Z,95075.00
2023-04-10T10:48:38.491Z,95071.00
2023-04-10T10:49:38.508Z,95071.00
2023-04-10T10:50:38.579Z,95069.00
2023-04-10T10:51:38.609Z,95067.00
2023-04-10T10:52:38.680Z,95065.00
2023-04-10T10:53:38.737Z,95061.00
2023-04-10T10:55:38.811Z,95059.00
2023-04-10T10:56:38.852Z,95057.00
2023-04-10T10:57:38.913Z,95055.00
2023-04-10T10:58:39.014Z,95053.00
2023-04-10T10:59:39.001Z,95051.00
2023-04-10T11:00:39.040Z,95047.00
2023-04-10T11:01:39.176Z,95045.00
2023-04-10T11:02:39.308Z,95043.00
2023-04-10T11:03:39.335Z,95041.00
2023-04-10T11:04:39.238Z,95037.00
2023-04-10T11:05:39.267Z,95036.00
2023-04-10T11:06:40.091Z,95032.00
2023-04-10T11:07:39.341Z,95030.00
2023-04-10T11:08:39.528Z,95030.00
2023-04-10T11:09:39.445Z,95026.00
2023-04-10T11:10:39.527Z,95026.00
2023-04-10T11:11:39.548Z,95024.00
2023-04-10T11:12:39.701Z,95022.00
2023-04-10T11:13:39.625Z,95018.00
2023-04-10T11:14:39.695Z,95018.00
2023-04-10T11:15:39.713Z,95016.00
2023-04-10T11:16:39.817Z,95012.00
2023-04-10T11:17:39.826Z,95010.00
2023-04-10T11:18:39.837Z,95010.00
2023-04-10T11:19:39.847Z,95006.00
2023-04-10T11:20:39.895Z,95008.00
2023-04-10T11:21:39.992Z,95006.00
2023-04-10T11:22:40.038Z,95002.00
2023-04-10T11:23:40.024Z,95002.00
2023-04-10T11:24:42.087Z,94998.00
2023-04-10T11:25:40.109Z,94998.00
2023-04-10T11:26:40.185Z,94996.00
2023-04-10T11:27:40.208Z,94994.00
2023-04-10T11:28:40.287Z,94994.00
2023-04-10T11:29:40.277Z,94992.00
2023-04-10T11:30:40.298Z,94996.00
2023-04-10T11:31:40.390Z,94992.00
2023-04-10T11:32:40.495Z,94988.00
2023-04-10T11:33:40.485Z,94984.00
2023-04-10T11:34:40.463Z,94982.00
2023-04-10T11:35:40.546Z,94981.00
2023-04-10T11:36:40.562Z,94979.00
2023-04-10T11:37:40.600Z,94977.00
2023-04-10T11:38:41.595Z,94975.00
2023-04-10T11:39:40.639Z,94973.00
2023-04-10T11:40:40.687Z,94975.00
2023-04-10T11:41:43.567Z,94969.00
2023-04-10T11:42:40.729Z,94967.00
2023-04-10T11:43:40.716Z,94963.00
2023-04-10T11:44:40.856Z,94959.00
2023-04-10T11:45:40.752Z,94957.00